Time;durP1;ratioP1;P1;durP2;ratioP2;P2;SDS_P1;SDS_P2;PMS_P1;PMS_P2;Temp;Humidity;BMP_temperature;BMP_pressure;BME280_temperature;BME280_humidity;BME280_pressure;Samples;Min_cycle;Max_cycle;Signal;HPM_P1;HPM_P2
2021/10/27 00:01:06;;;;;;;17.77;11.80;;;12.10;99.90;;;;;;5026496;28;20576;-53
2021/10/27 00:03:33;;;;;;;17.17;11.60;;;12.20;99.90;;;;;;5040450;28;20234;-50
2021/10/27 00:05:59;;;;;;;17.87;10.63;;;12.20;99.90;;;;;;5032094;28;20199;-52
2021/10/27 00:08:28;;;;;;;17.03;11.33;;;12.20;99.90;;;;;;5043419;28;20191;-52
2021/10/27 00:10:55;;;;;;;14.03;10.90;;;12.20;99.90;;;;;;5029981;28;20200;-53
2021/10/27 00:13:22;;;;;;;16.90;11.73;;;12.20;99.90;;;;;;5030522;28;20223;-54
2021/10/27 00:15:49;;;;;;;11.23;10.10;;;12.20;99.90;;;;;;5043052;28;20195;-48
2021/10/27 00:18:16;;;;;;;14.27;11.03;;;12.30;99.90;;;;;;5026152;28;20808;-53
2021/10/27 00:20:42;;;;;;;16.77;11.47;;;12.30;99.90;;;;;;5039960;28;20199;-53
2021/10/27 00:23:10;;;;;;;17.10;11.60;;;12.30;99.90;;;;;;5039904;28;20231;-54
2021/10/27 00:25:38;;;;;;;17.53;11.47;;;12.40;99.90;;;;;;5037158;28;20750;-52
2021/10/27 00:28:04;;;;;;;17.40;11.93;;;12.40;99.90;;;;;;5033671;28;20204;-54
2021/10/27 00:30:31;;;;;;;16.57;11.23;;;12.40;99.90;;;;;;5040556;28;20218;-49
2021/10/27 00:32:58;;;;;;;16.17;11.83;;;12.40;99.90;;;;;;5029953;28;20200;-52
2021/10/27 00:35:25;;;;;;;15.37;11.87;;;12.50;99.90;;;;;;5032235;28;20215;-52
2021/10/27 00:37:51;;;;;;;17.93;12.37;;;12.50;99.90;;;;;;5037831;28;20199;-50
2021/10/27 00:40:18;;;;;;;19.70;11.63;;;12.50;99.90;;;;;;5041792;28;20199;-48
2021/10/27 00:42:46;;;;;;;23.20;14.00;;;12.40;99.90;;;;;;5030234;28;20229;-48
2021/10/27 00:45:13;;;;;;;19.50;13.17;;;12.40;99.90;;;;;;5039158;28;20223;-53
2021/10/27 00:47:39;;;;;;;18.20;12.70;;;12.50;99.90;;;;;;5031766;28;20199;-54
2021/10/27 00:50:07;;;;;;;17.37;11.80;;;12.40;99.90;;;;;;5028181;28;20211;-51
2021/10/27 00:52:34;;;;;;;17.83;13.00;;;12.50;99.90;;;;;;5030467;28;20198;-53
2021/10/27 00:55:00;;;;;;;16.20;12.50;;;12.40;99.90;;;;;;5035663;28;20222;-55
2021/10/27 00:57:27;;;;;;;20.03;12.97;;;12.40;99.90;;;;;;5034059;28;20203;-54
2021/10/27 00:59:57;;;;;;;21.23;13.40;;;12.40;99.90;;;;;;5041966;28;21075;-55
2021/10/27 01:02:24;;;;;;;17.53;12.40;;;12.40;99.90;;;;;;5036618;28;20554;-51
2021/10/27 01:04:50;;;;;;;18.90;12.17;;;12.40;99.90;;;;;;5018517;28;20215;-47
2021/10/27 01:07:17;;;;;;;15.37;12.23;;;12.50;99.90;;;;;;5035153;28;20200;-49
2021/10/27 01:09:44;;;;;;;19.97;11.83;;;12.50;99.90;;;;;;5031914;28;20907;-54
2021/10/27 01:12:12;;;;;;;17.43;12.33;;;12.50;99.90;;;;;;5041211;28;20205;-50
2021/10/27 01:14:40;;;;;;;19.13;11.93;;;12.50;99.90;;;;;;5022562;28;20976;-54
2021/10/27 01:17:09;;;;;;;16.47;11.60;;;12.50;99.90;;;;;;5036289;28;20214;-51
2021/10/27 01:19:44;;;;;;;17.53;12.07;;;12.50;99.90;;;;;;5019181;28;20227;-51
2021/10/27 01:22:11;;;;;;;23.97;12.30;;;12.50;99.90;;;;;;5015643;28;20222;-53
2021/10/27 01:24:38;;;;;;;18.77;11.70;;;12.50;99.90;;;;;;5040273;28;20578;-51
2021/10/27 01:27:05;;;;;;;21.37;13.63;;;12.60;99.90;;;;;;5033939;28;20214;-53
2021/10/27 01:29:32;;;;;;;18.43;12.60;;;12.60;99.90;;;;;;5031134;28;20937;-52
2021/10/27 01:31:58;;;;;;;21.60;12.73;;;12.60;99.90;;;;;;5035383;28;20215;-51
2021/10/27 01:34:25;;;;;;;24.63;12.43;;;12.60;99.90;;;;;;5039669;28;20215;-52
2021/10/27 01:36:53;;;;;;;18.83;11.87;;;12.60;99.90;;;;;;5024976;28;20215;-50
2021/10/27 01:39:20;;;;;;;19.20;12.87;;;12.60;99.90;;;;;;5027499;28;20871;-53
2021/10/27 01:41:47;;;;;;;19.37;12.23;;;12.60;99.90;;;;;;5043762;28;20226;-51
2021/10/27 01:44:13;;;;;;;17.97;12.07;;;12.60;99.90;;;;;;5021467;28;20226;-49
2021/10/27 01:46:40;;;;;;;15.73;12.60;;;12.60;99.90;;;;;;5041697;28;20614;-50
2021/10/27 01:49:09;;;;;;;21.37;13.17;;;12.60;99.90;;;;;;5036363;28;20219;-51
2021/10/27 01:51:36;;;;;;;19.37;12.63;;;12.70;99.90;;;;;;5018509;28;20675;-49
2021/10/27 01:54:05;;;;;;;16.50;11.80;;;12.70;99.90;;;;;;5035265;28;20227;-54
2021/10/27 01:56:32;;;;;;;17.90;12.23;;;12.70;99.90;;;;;;5043186;28;20286;-54
2021/10/27 01:58:59;;;;;;;16.70;11.93;;;12.80;99.90;;;;;;5027145;28;20203;-53
2021/10/27 02:01:25;;;;;;;20.53;13.23;;;12.80;99.90;;;;;;5036270;28;20210;-48
2021/10/27 02:03:53;;;;;;;19.37;13.03;;;12.80;99.90;;;;;;5036832;28;20207;-50
2021/10/27 02:06:20;;;;;;;22.33;13.37;;;12.80;99.90;;;;;;5038768;28;20200;-49
2021/10/27 02:08:47;;;;;;;19.73;13.60;;;12.80;99.90;;;;;;5012120;28;20210;-53
2021/10/27 02:11:15;;;;;;;18.93;13.10;;;12.80;99.90;;;;;;5038346;28;20203;-56
2021/10/27 02:13:42;;;;;;;15.67;13.23;;;12.80;99.90;;;;;;5038248;28;20219;-53
2021/10/27 02:16:09;;;;;;;16.43;12.20;;;12.90;99.90;;;;;;5032848;28;20251;-55
2021/10/27 02:18:36;;;;;;;25.97;14.00;;;12.90;99.90;;;;;;5040701;28;20657;-55
2021/10/27 02:21:03;;;;;;;21.23;14.23;;;12.90;99.90;;;;;;5035173;28;20786;-52
2021/10/27 02:23:30;;;;;;;24.50;14.23;;;12.90;99.90;;;;;;5023915;28;20342;-54
2021/10/27 02:25:57;;;;;;;18.97;13.50;;;12.90;99.90;;;;;;5026237;28;20941;-51
2021/10/27 02:28:25;;;;;;;17.13;13.50;;;12.90;99.90;;;;;;5039862;28;20203;-48
2021/10/27 02:30:52;;;;;;;22.20;14.30;;;12.90;99.90;;;;;;5025097;28;20207;-49
2021/10/27 02:33:19;;;;;;;17.13;14.30;;;13.00;99.90;;;;;;5032985;28;20277;-51
2021/10/27 02:35:45;;;;;;;17.33;13.10;;;12.90;99.90;;;;;;5036867;28;20203;-48
2021/10/27 02:38:16;;;;;;;20.23;13.63;;;13.00;99.90;;;;;;5024393;28;20203;-50
2021/10/27 02:40:42;;;;;;;19.17;14.10;;;13.00;99.90;;;;;;5033333;28;20207;-52
2021/10/27 02:43:09;;;;;;;24.63;13.30;;;13.00;99.90;;;;;;5034571;28;20303;-51
2021/10/27 02:45:37;;;;;;;17.30;13.47;;;13.00;99.90;;;;;;5034226;28;20546;-53
2021/10/27 02:48:04;;;;;;;17.37;13.87;;;13.00;99.90;;;;;;5034999;28;20211;-51
2021/10/27 02:50:31;;;;;;;24.53;14.13;;;13.00;99.90;;;;;;5031620;28;20212;-52
2021/10/27 02:52:57;;;;;;;21.80;15.80;;;13.00;99.90;;;;;;5037215;28;20199;-51
2021/10/27 02:55:24;;;;;;;21.40;14.10;;;13.00;99.90;;;;;;5020186;28;20571;-52
2021/10/27 02:57:51;;;;;;;19.00;14.17;;;13.00;99.90;;;;;;5027731;28;20195;-50
2021/10/27 03:00:17;;;;;;;21.30;15.03;;;13.00;99.90;;;;;;5040312;28;20203;-51
2021/10/27 03:02:45;;;;;;;21.50;14.60;;;13.00;99.90;;;;;;5036477;28;20223;-52
2021/10/27 03:05:12;;;;;;;19.33;14.20;;;13.00;99.90;;;;;;5031191;28;20224;-53
2021/10/27 03:07:39;;;;;;;17.67;14.07;;;13.00;99.90;;;;;;5036292;28;20209;-52
2021/10/27 03:10:07;;;;;;;21.33;14.90;;;13.00;99.90;;;;;;5023494;28;20326;-50
2021/10/27 03:12:33;;;;;;;20.37;15.17;;;13.00;99.90;;;;;;5027274;28;20683;-48
2021/10/27 03:15:00;;;;;;;19.27;14.23;;;13.00;99.90;;;;;;5032799;28;20230;-48
2021/10/27 03:17:26;;;;;;;21.57;15.60;;;13.00;99.90;;;;;;5035120;28;20203;-49
2021/10/27 03:19:54;;;;;;;23.73;16.03;;;13.00;99.90;;;;;;5025970;28;20183;-50
2021/10/27 03:22:21;;;;;;;25.60;15.87;;;13.00;99.90;;;;;;5032439;28;20218;-50
2021/10/27 03:24:48;;;;;;;23.77;16.97;;;13.00;99.90;;;;;;5017072;28;20231;-52
2021/10/27 03:27:15;;;;;;;22.50;15.67;;;13.00;99.90;;;;;;5035336;28;20207;-49
2021/10/27 03:29:41;;;;;;;27.13;17.00;;;13.00;99.90;;;;;;5026042;28;20203;-54
2021/10/27 03:32:09;;;;;;;23.40;15.23;;;13.00;99.90;;;;;;5035889;28;20203;-53
2021/10/27 03:34:35;;;;;;;18.40;15.37;;;13.00;99.90;;;;;;5034398;28;20219;-51
2021/10/27 03:37:04;;;;;;;17.80;14.87;;;13.00;99.90;;;;;;5019632;28;20200;-54
2021/10/27 03:39:31;;;;;;;22.80;16.30;;;13.00;99.90;;;;;;5038075;28;20203;-52
2021/10/27 03:41:57;;;;;;;23.70;15.67;;;13.10;99.90;;;;;;5017508;28;20199;-51
2021/10/27 03:44:24;;;;;;;23.47;16.53;;;13.10;99.90;;;;;;5026174;28;20223;-53
2021/10/27 03:46:51;;;;;;;25.20;16.00;;;13.10;99.90;;;;;;5036332;28;20196;-47
2021/10/27 03:49:19;;;;;;;25.03;16.47;;;13.00;99.90;;;;;;5030776;28;20661;-52
2021/10/27 03:51:46;;;;;;;21.50;17.00;;;13.10;99.90;;;;;;5026332;28;20195;-53
2021/10/27 03:54:15;;;;;;;22.50;15.37;;;13.10;99.90;;;;;;5033502;28;20310;-51
2021/10/27 03:56:42;;;;;;;21.77;16.10;;;13.10;99.90;;;;;;5017225;28;20202;-51
2021/10/27 03:59:09;;;;;;;23.27;15.67;;;13.10;99.90;;;;;;5039676;28;20199;-54
2021/10/27 04:01:36;;;;;;;19.70;15.70;;;13.10;99.90;;;;;;5025969;28;20244;-52
2021/10/27 04:04:02;;;;;;;23.90;16.97;;;13.10;99.90;;;;;;5035562;28;20223;-51
2021/10/27 04:06:29;;;;;;;25.73;17.07;;;13.10;99.90;;;;;;5026559;28;20215;-48
2021/10/27 04:08:56;;;;;;;26.00;15.97;;;13.10;99.90;;;;;;5030386;28;20614;-53
2021/10/27 04:11:24;;;;;;;22.00;15.57;;;13.10;99.90;;;;;;5028617;28;20195;-53
2021/10/27 04:13:51;;;;;;;24.20;16.10;;;13.10;99.90;;;;;;5023628;28;20215;-52
2021/10/27 04:16:17;;;;;;;25.20;16.93;;;13.10;99.90;;;;;;5035843;28;20201;-52
2021/10/27 04:18:44;;;;;;;23.87;17.10;;;13.10;99.90;;;;;;5033271;28;20401;-51
2021/10/27 04:21:11;;;;;;;26.70;16.83;;;13.10;99.90;;;;;;5036992;28;20203;-47
2021/10/27 04:23:37;;;;;;;24.27;17.17;;;13.10;99.90;;;;;;5027162;28;20219;-52
2021/10/27 04:26:04;;;;;;;23.23;16.43;;;13.10;99.90;;;;;;5034260;28;20920;-51
2021/10/27 04:28:32;;;;;;;28.10;17.07;;;13.10;99.90;;;;;;5014860;28;20218;-51
2021/10/27 04:31:01;;;;;;;28.13;17.60;;;13.10;99.90;;;;;;5030920;28;20196;-52
2021/10/27 04:33:28;;;;;;;24.87;17.00;;;13.10;99.90;;;;;;5028943;28;20239;-52
2021/10/27 04:35:55;;;;;;;23.47;16.93;;;13.10;99.90;;;;;;5021081;28;20204;-49
2021/10/27 04:38:22;;;;;;;24.40;17.20;;;13.10;99.90;;;;;;5026340;28;20204;-54
2021/10/27 04:40:49;;;;;;;23.67;16.00;;;13.10;99.90;;;;;;5026473;28;20904;-50
2021/10/27 04:43:16;;;;;;;22.73;16.80;;;13.10;99.90;;;;;;5025756;28;20227;-52
2021/10/27 04:45:44;;;;;;;24.23;16.40;;;13.10;99.90;;;;;;5028843;28;20195;-51
2021/10/27 04:48:13;;;;;;;26.67;17.30;;;13.10;99.90;;;;;;5038917;28;20198;-55
2021/10/27 04:50:39;;;;;;;25.63;17.00;;;13.10;99.90;;;;;;5027407;28;20270;-50
2021/10/27 04:53:12;;;;;;;23.33;16.47;;;13.10;99.90;;;;;;5034100;28;20564;-56
2021/10/27 04:55:39;;;;;;;27.40;17.87;;;13.10;99.90;;;;;;5036037;28;20260;-56
2021/10/27 04:58:05;;;;;;;23.63;16.93;;;13.10;99.90;;;;;;5017473;28;20207;-54
2021/10/27 05:00:32;;;;;;;27.40;18.37;;;13.10;99.90;;;;;;5029191;28;20204;-56
2021/10/27 05:03:00;;;;;;;30.10;18.43;;;13.10;99.90;;;;;;5030943;28;20212;-57
2021/10/27 05:05:28;;;;;;;24.93;16.67;;;13.20;99.90;;;;;;5040858;28;20687;-54
2021/10/27 05:07:57;;;;;;;28.50;17.83;;;13.20;99.90;;;;;;5021784;28;20458;-55
2021/10/27 05:10:23;;;;;;;30.27;19.43;;;13.20;99.90;;;;;;5039637;28;20286;-50
2021/10/27 05:12:50;;;;;;;27.67;17.03;;;13.20;99.90;;;;;;5028949;28;20200;-54
2021/10/27 05:15:17;;;;;;;30.77;18.00;;;13.20;99.90;;;;;;5026363;28;20215;-51
2021/10/27 05:17:43;;;;;;;25.87;17.07;;;13.20;99.90;;;;;;5025383;28;20188;-48
2021/10/27 05:20:13;;;;;;;26.97;18.40;;;13.20;99.90;;;;;;5036080;28;20207;-47
2021/10/27 05:22:39;;;;;;;25.17;16.67;;;13.20;99.90;;;;;;5024817;28;20211;-47
2021/10/27 05:25:07;;;;;;;25.67;15.47;;;13.20;99.90;;;;;;5016492;28;20688;-48
2021/10/27 05:27:35;;;;;;;28.93;17.43;;;13.20;99.90;;;;;;5032539;28;20215;-50
2021/10/27 05:30:02;;;;;;;27.57;16.87;;;13.20;99.90;;;;;;5024677;28;20218;-47
2021/10/27 05:32:29;;;;;;;25.20;15.70;;;13.20;99.90;;;;;;5028135;28;20218;-49
2021/10/27 05:34:56;;;;;;;25.80;18.27;;;13.20;99.90;;;;;;5042560;28;21081;-50
2021/10/27 05:37:23;;;;;;;24.13;16.23;;;13.20;99.90;;;;;;5032159;28;20192;-48
2021/10/27 05:39:50;;;;;;;23.57;15.40;;;13.30;99.90;;;;;;5030651;28;20208;-51
2021/10/27 05:42:20;;;;;;;25.37;17.47;;;13.20;99.90;;;;;;5031492;28;20198;-54
2021/10/27 05:44:48;;;;;;;30.87;17.20;;;13.30;99.90;;;;;;5033787;28;20247;-50
2021/10/27 05:47:16;;;;;;;27.90;17.47;;;13.30;99.90;;;;;;5011759;28;20215;-50
2021/10/27 05:49:47;;;;;;;24.67;16.50;;;13.20;99.90;;;;;;5038422;28;20664;-46
2021/10/27 05:55:07;;;;;;;24.60;17.67;;;13.20;99.90;;;;;;5033385;28;20238;-48
2021/10/27 05:57:36;;;;;;;30.37;17.67;;;13.20;99.90;;;;;;5029814;28;20320;-49
2021/10/27 06:00:03;;;;;;;27.07;17.03;;;13.20;99.90;;;;;;5032467;28;20245;-50
2021/10/27 06:02:31;;;;;;;36.53;18.40;;;13.20;99.90;;;;;;5017986;28;20208;-54
2021/10/27 06:04:58;;;;;;;25.60;17.13;;;13.20;99.90;;;;;;5042385;28;20219;-54
2021/10/27 06:07:24;;;;;;;25.53;16.80;;;13.20;99.90;;;;;;5026309;28;20214;-53
2021/10/27 06:09:53;;;;;;;25.13;16.63;;;13.20;99.90;;;;;;5039825;28;20199;-48
2021/10/27 06:12:21;;;;;;;26.53;17.37;;;13.20;99.90;;;;;;5020159;28;20240;-56
2021/10/27 06:14:48;;;;;;;26.13;18.17;;;13.20;99.90;;;;;;5029684;28;20215;-47
2021/10/27 06:17:15;;;;;;;26.53;17.40;;;13.20;99.90;;;;;;5017487;28;20211;-45
2021/10/27 06:19:42;;;;;;;26.17;16.67;;;13.20;99.90;;;;;;5027166;28;20203;-46
2021/10/27 06:22:09;;;;;;;29.57;17.90;;;13.20;99.90;;;;;;5023585;28;20199;-46
2021/10/27 06:24:37;;;;;;;27.77;17.30;;;13.20;99.90;;;;;;5040943;28;20223;-48
2021/10/27 06:27:05;;;;;;;25.10;17.23;;;13.20;99.90;;;;;;5034083;28;20191;-45
2021/10/27 06:29:36;;;;;;;24.90;15.67;;;13.20;99.90;;;;;;5030957;28;20211;-45
2021/10/27 06:32:11;;;;;;;30.23;17.30;;;13.20;99.90;;;;;;5037805;28;20294;-46
2021/10/27 06:34:40;;;;;;;22.43;15.87;;;13.10;99.90;;;;;;5017335;28;20600;-49
2021/10/27 06:37:16;;;;;;;33.67;19.10;;;13.20;99.90;;;;;;5036154;28;20191;-46
2021/10/27 06:47:58;;;;;;;27.00;16.83;;;13.20;99.90;;;;;;5007752;28;20237;-46
2021/10/27 06:50:24;;;;;;;28.57;16.73;;;13.20;99.90;;;;;;5018732;28;20587;-47
2021/10/27 06:52:51;;;;;;;23.50;16.30;;;13.20;99.90;;;;;;5018370;28;20203;-46
2021/10/27 06:55:18;;;;;;;23.90;17.50;;;13.20;99.90;;;;;;5029956;28;20691;-45
2021/10/27 06:57:45;;;;;;;23.80;15.20;;;13.20;99.90;;;;;;5024667;28;20225;-48
2021/10/27 07:00:19;;;;;;;29.70;16.80;;;13.20;99.90;;;;;;5039067;28;20200;-50
2021/10/27 07:16:39;;;;;;;29.83;18.30;;;13.20;99.90;;;;;;5030040;28;20684;-48
2021/10/27 07:19:05;;;;;;;23.73;15.77;;;13.20;99.90;;;;;;5036787;28;20241;-47
2021/10/27 07:21:32;;;;;;;26.30;18.10;;;13.20;99.90;;;;;;5000858;28;20212;-50
2021/10/27 07:23:59;;;;;;;33.23;19.47;;;13.30;99.90;;;;;;5037558;28;20740;-47
2021/10/27 07:26:26;;;;;;;29.57;17.37;;;13.30;99.90;;;;;;5028038;28;20265;-48
2021/10/27 07:28:54;;;;;;;24.13;16.00;;;13.30;99.90;;;;;;5034167;28;20226;-49
2021/10/27 07:31:23;;;;;;;24.40;16.43;;;13.30;99.90;;;;;;5037337;28;20215;-50
2021/10/27 07:33:57;;;;;;;21.57;15.53;;;13.30;99.90;;;;;;5041401;28;20227;-51
2021/10/27 07:36:40;;;;;;;22.30;15.67;;;13.30;99.90;;;;;;5017603;28;20882;-49
2021/10/27 07:41:51;;;;;;;22.83;15.83;;;13.30;99.90;;;;;;5036898;28;20191;-46
2021/10/27 07:44:18;;;;;;;20.00;15.13;;;13.30;99.90;;;;;;5024191;28;20223;-50
2021/10/27 07:46:45;;;;;;;21.43;14.90;;;13.30;99.90;;;;;;5036234;28;20210;-48
2021/10/27 07:49:14;;;;;;;22.67;15.67;;;13.30;99.90;;;;;;5036769;28;20207;-42
2021/10/27 07:51:42;;;;;;;22.37;16.23;;;13.30;99.90;;;;;;5027211;28;20199;-46
2021/10/27 07:54:08;;;;;;;22.87;15.60;;;13.30;99.90;;;;;;5030160;28;20285;-42
2021/10/27 07:56:35;;;;;;;23.73;14.93;;;13.40;99.90;;;;;;5034789;28;20218;-43
2021/10/27 07:59:02;;;;;;;24.27;16.63;;;13.40;99.90;;;;;;5029197;28;20210;-42
2021/10/27 08:01:29;;;;;;;27.60;17.97;;;13.20;99.90;;;;;;5029327;28;20192;-43
2021/10/27 08:03:56;;;;;;;26.30;17.83;;;13.40;99.90;;;;;;5028112;28;20232;-47
2021/10/27 08:06:24;;;;;;;21.40;17.00;;;13.30;99.90;;;;;;5034216;28;20191;-45
2021/10/27 08:08:50;;;;;;;26.47;16.00;;;13.40;99.90;;;;;;5015932;28;20207;-43
2021/10/27 08:11:17;;;;;;;23.03;15.07;;;13.50;99.90;;;;;;5026338;28;20208;-43
2021/10/27 08:13:44;;;;;;;24.60;15.83;;;13.50;99.90;;;;;;5040347;28;20277;-44
2021/10/27 08:16:11;;;;;;;20.60;15.20;;;13.50;99.90;;;;;;5031933;28;20219;-42
2021/10/27 08:18:38;;;;;;;19.87;15.43;;;13.50;99.90;;;;;;5037809;28;20282;-44
2021/10/27 08:21:06;;;;;;;20.90;15.90;;;13.50;99.90;;;;;;5032767;28;20196;-44
2021/10/27 08:23:38;;;;;;;25.17;15.77;;;13.50;99.90;;;;;;5022846;28;20223;-43
2021/10/27 08:26:08;;;;;;;22.77;15.07;;;13.50;99.90;;;;;;5024959;28;20200;-44
2021/10/27 08:28:38;;;;;;;23.80;16.23;;;13.50;99.90;;;;;;5029051;28;20644;-47
2021/10/27 08:31:09;;;;;;;26.40;16.53;;;13.60;99.90;;;;;;5039698;28;20231;-45
2021/10/27 08:34:03;;;;;;;20.63;14.37;;;13.60;99.90;;;;;;5032933;28;20215;-43
2021/10/27 08:36:29;;;;;;;28.40;16.00;;;13.60;99.90;;;;;;5036205;28;20571;-43
2021/10/27 08:38:58;;;;;;;27.40;16.43;;;13.60;99.90;;;;;;5027010;28;20199;-43
2021/10/27 08:41:25;;;;;;;21.00;15.67;;;13.60;99.90;;;;;;5030907;28;20695;-43
2021/10/27 08:43:51;;;;;;;23.17;15.93;;;13.60;99.90;;;;;;5040020;28;21036;-46
2021/10/27 08:46:19;;;;;;;21.07;14.87;;;13.60;99.90;;;;;;5035051;28;20208;-47
2021/10/27 08:48:52;;;;;;;22.80;15.50;;;13.60;99.90;;;;;;5038386;28;20833;-45
2021/10/27 08:51:20;;;;;;;23.40;15.20;;;13.70;99.90;;;;;;5044708;28;20211;-44
2021/10/27 08:53:47;;;;;;;22.93;15.50;;;13.70;99.90;;;;;;5029833;28;20219;-43
2021/10/27 08:56:15;;;;;;;22.33;15.30;;;13.70;99.90;;;;;;5040633;28;20219;-46
2021/10/27 08:58:43;;;;;;;25.77;15.63;;;13.70;99.90;;;;;;5037869;28;20192;-44
2021/10/27 09:01:15;;;;;;;25.23;15.23;;;13.70;99.90;;;;;;5038753;28;20203;-45
2021/10/27 09:04:09;;;;;;;26.93;15.83;;;13.70;99.90;;;;;;5031150;28;20976;-46
2021/10/27 09:06:40;;;;;;;20.83;16.27;;;13.70;99.90;;;;;;5038990;28;20198;-44
2021/10/27 09:15:25;;;;;;;19.57;13.03;;;13.80;99.90;;;;;;5042317;28;20226;-44
2021/10/27 09:34:58;;;;;;;19.90;13.90;;;13.80;99.90;;;;;;5014536;28;20227;-44
2021/10/27 09:43:10;;;;;;;19.07;14.03;;;13.80;99.90;;;;;;5032971;28;20202;-42
2021/10/27 10:05:08;;;;;;;14.13;11.40;;;13.90;99.90;;;;;;5033446;28;20211;-46
2021/10/27 10:07:36;;;;;;;14.53;12.10;;;13.90;99.90;;;;;;5033846;28;20200;-43
2021/10/27 10:10:04;;;;;;;13.53;11.90;;;13.90;99.90;;;;;;5040350;28;20919;-43
2021/10/27 10:12:35;;;;;;;14.60;11.63;;;13.90;99.90;;;;;;5026882;28;20211;-45
2021/10/27 10:15:02;;;;;;;14.70;11.83;;;13.90;99.90;;;;;;5034955;28;20320;-45
2021/10/27 10:17:32;;;;;;;17.37;12.03;;;14.00;99.90;;;;;;5036319;28;20202;-45
2021/10/27 10:19:59;;;;;;;17.83;11.87;;;13.90;99.90;;;;;;5037837;28;20210;-43
2021/10/27 10:22:27;;;;;;;16.97;12.23;;;14.00;99.90;;;;;;5040883;28;20211;-46
2021/10/27 10:24:54;;;;;;;20.23;12.27;;;14.00;99.90;;;;;;5038899;28;20226;-46
2021/10/27 10:27:37;;;;;;;19.40;12.10;;;14.00;99.90;;;;;;5024179;28;20217;-47
2021/10/27 10:30:24;;;;;;;15.33;11.93;;;14.00;99.90;;;;;;5033604;28;20199;-44
2021/10/27 10:33:04;;;;;;;17.87;13.03;;;14.10;99.90;;;;;;5031677;28;20561;-43
2021/10/27 10:35:44;;;;;;;12.40;10.80;;;14.10;99.90;;;;;;5036234;28;20249;-44
2021/10/27 10:38:28;;;;;;;14.47;12.53;;;14.20;99.90;;;;;;5023322;28;20196;-47
2021/10/27 10:41:17;;;;;;;13.87;12.13;;;14.20;99.90;;;;;;5012039;28;20599;-44
2021/10/27 10:44:02;;;;;;;16.87;13.40;;;14.20;99.90;;;;;;5020599;28;20286;-43
2021/10/27 11:22:46;;;;;;;15.13;12.17;;;14.40;99.90;;;;;;5026496;28;20210;-43
2021/10/27 11:25:21;;;;;;;12.97;11.57;;;14.40;99.90;;;;;;5034618;28;20213;-47
2021/10/27 11:41:59;;;;;;;16.83;11.80;;;14.40;99.90;;;;;;5030124;28;20203;-44
2021/10/27 11:44:36;;;;;;;17.07;12.83;;;14.40;99.90;;;;;;5020804;28;20298;-45
2021/10/27 11:47:07;;;;;;;18.43;13.93;;;14.40;99.90;;;;;;5030466;28;20293;-46
2021/10/27 11:49:37;;;;;;;16.87;12.27;;;14.40;99.90;;;;;;5038610;28;20203;-45
2021/10/27 11:52:05;;;;;;;14.10;12.20;;;14.40;99.90;;;;;;5033750;28;20306;-44
2021/10/27 11:54:35;;;;;;;14.23;11.87;;;14.40;99.90;;;;;;5035421;28;20289;-44
2021/10/27 11:57:02;;;;;;;15.53;12.30;;;14.40;99.90;;;;;;5035811;28;20287;-45
2021/10/27 11:59:39;;;;;;;17.40;12.77;;;14.50;99.90;;;;;;5030990;28;20225;-45
2021/10/27 12:02:06;;;;;;;16.07;13.20;;;14.50;99.90;;;;;;5023150;28;20200;-47
2021/10/27 12:04:38;;;;;;;13.63;12.23;;;14.50;99.90;;;;;;5031959;28;20223;-45
2021/10/27 12:07:13;;;;;;;16.13;13.30;;;14.50;99.90;;;;;;5036331;28;20187;-45
2021/10/27 12:12:33;;;;;;;12.70;11.23;;;14.50;99.90;;;;;;5037674;28;20550;-45
2021/10/27 12:15:26;;;;;;;13.17;11.87;;;14.50;99.90;;;;;;5022797;28;20231;-45
2021/10/27 12:18:00;;;;;;;16.83;12.17;;;14.50;99.90;;;;;;5031536;28;20261;-44
2021/10/27 12:20:45;;;;;;;13.57;11.47;;;14.50;99.90;;;;;;5038213;28;20206;-46
2021/10/27 12:23:21;;;;;;;14.97;11.67;;;14.50;99.90;;;;;;5040074;28;20195;-43
2021/10/27 12:25:51;;;;;;;14.90;11.97;;;14.50;99.90;;;;;;5027613;28;20218;-45
2021/10/27 12:28:29;;;;;;;15.03;11.93;;;14.50;99.90;;;;;;5037107;28;20207;-44
2021/10/27 12:30:56;;;;;;;12.97;11.37;;;14.50;99.90;;;;;;5025080;28;20207;-47
2021/10/27 12:33:39;;;;;;;13.17;11.07;;;14.50;99.90;;;;;;5037872;28;20230;-43
2021/10/27 12:36:14;;;;;;;17.07;12.10;;;14.40;99.90;;;;;;5030466;28;20195;-43
2021/10/27 12:38:42;;;;;;;12.83;11.30;;;14.40;99.90;;;;;;5043249;28;20194;-46
2021/10/27 12:41:22;;;;;;;11.97;10.63;;;14.50;99.90;;;;;;5039628;28;20281;-43
2021/10/27 12:43:49;;;;;;;12.73;11.43;;;14.40;99.90;;;;;;5035143;28;20222;-46
2021/10/27 12:46:19;;;;;;;14.50;12.23;;;14.40;99.90;;;;;;5045583;28;20700;-47
2021/10/27 12:48:47;;;;;;;12.43;11.30;;;14.40;99.90;;;;;;5023477;28;20203;-43
2021/10/27 12:51:13;;;;;;;14.33;11.47;;;14.40;99.90;;;;;;5034816;28;20215;-44
2021/10/27 12:53:42;;;;;;;14.33;10.83;;;14.50;99.90;;;;;;5036949;28;20270;-43
2021/10/27 12:56:12;;;;;;;12.53;10.83;;;14.50;99.90;;;;;;5033182;28;20265;-45
2021/10/27 12:58:44;;;;;;;13.17;10.57;;;14.50;99.90;;;;;;5031604;28;20228;-45
2021/10/27 13:01:22;;;;;;;16.67;11.83;;;14.50;99.90;;;;;;5038533;28;20202;-44
2021/10/27 13:04:07;;;;;;;14.57;11.93;;;14.40;99.90;;;;;;5027101;28;20222;-43
2021/10/27 13:06:43;;;;;;;15.67;12.87;;;14.40;99.90;;;;;;5038362;28;20380;-44
2021/10/27 13:09:29;;;;;;;15.77;12.00;;;14.40;99.90;;;;;;5032076;28;20203;-47
2021/10/27 13:14:51;;;;;;;16.83;12.93;;;14.30;99.90;;;;;;5035813;28;20215;-43
2021/10/27 13:20:35;;;;;;;13.50;11.70;;;14.30;99.90;;;;;;5031693;28;20278;-49
2021/10/27 13:31:24;;;;;;;14.93;11.60;;;14.30;99.90;;;;;;5035738;28;20203;-43
2021/10/27 13:33:51;;;;;;;12.77;11.13;;;14.30;99.90;;;;;;5028963;28;20219;-45
2021/10/27 13:36:18;;;;;;;13.20;10.53;;;14.30;99.90;;;;;;5039975;28;20874;-46
2021/10/27 13:38:46;;;;;;;15.00;11.83;;;14.30;99.90;;;;;;5036707;28;20211;-45
2021/10/27 13:41:12;;;;;;;13.83;12.53;;;14.30;99.90;;;;;;5035026;28;20222;-46
2021/10/27 13:43:44;;;;;;;15.40;12.27;;;14.30;99.90;;;;;;5028190;28;20231;-43
2021/10/27 14:08:11;;;;;;;20.77;12.33;;;14.30;99.90;;;;;;5029547;28;20203;-44
2021/10/27 14:10:43;;;;;;;13.00;11.67;;;14.30;99.90;;;;;;5036620;28;20536;-45
2021/10/27 14:13:19;;;;;;;15.37;11.57;;;14.30;99.90;;;;;;5027303;28;20203;-45
2021/10/27 14:18:54;;;;;;;11.40;10.10;;;14.40;99.90;;;;;;4994048;28;20779;-45
2021/10/27 15:19:42;;;;;;;12.93;7.43;;;14.40;99.90;;;;;;5035514;28;20225;-45
2021/10/27 15:22:13;;;;;;;8.73;5.30;;;14.40;99.90;;;;;;5024894;28;20207;-44
2021/10/27 15:30:23;;;;;;;7.63;5.73;;;14.40;99.90;;;;;;5036841;28;20282;-45
2021/10/27 15:33:03;;;;;;;11.43;5.63;;;14.40;99.90;;;;;;5034303;28;20798;-44
2021/10/27 15:35:38;;;;;;;5.63;4.70;;;14.40;99.90;;;;;;5032979;28;20202;-46
2021/10/27 15:41:08;;;;;;;5.00;4.50;;;14.40;99.90;;;;;;5030349;28;21359;-44
2021/10/27 15:43:42;;;;;;;5.00;4.50;;;14.40;99.90;;;;;;5024575;28;20332;-49
2021/10/27 15:51:43;;;;;;;8.23;4.10;;;14.40;99.90;;;;;;5039032;28;20890;-44
2021/10/27 15:54:13;;;;;;;8.67;3.87;;;14.40;99.90;;;;;;5015242;28;20231;-46
2021/10/27 15:56:40;;;;;;;7.10;4.20;;;14.40;99.90;;;;;;5026514;28;20193;-45
2021/10/27 15:59:08;;;;;;;7.37;4.17;;;14.40;99.90;;;;;;5032513;28;20219;-43
2021/10/27 16:01:34;;;;;;;5.73;3.70;;;14.40;99.90;;;;;;5038295;28;20211;-43
2021/10/27 16:04:01;;;;;;;10.27;3.90;;;14.50;99.90;;;;;;5023543;28;20272;-47
2021/10/27 16:06:29;;;;;;;5.97;3.80;;;14.40;99.90;;;;;;5032079;28;20241;-44
2021/10/27 16:08:58;;;;;;;8.37;4.07;;;14.40;99.90;;;;;;5026337;28;20921;-49
2021/10/27 16:11:25;;;;;;;5.73;3.90;;;14.40;99.90;;;;;;5025935;28;20785;-44
2021/10/27 16:13:52;;;;;;;7.57;3.73;;;14.40;99.90;;;;;;5023086;28;20665;-45
2021/10/27 16:16:20;;;;;;;5.60;4.20;;;14.50;99.90;;;;;;5035059;28;20250;-44
2021/10/27 16:18:47;;;;;;;3.73;3.07;;;14.50;99.90;;;;;;5026685;28;20218;-45
2021/10/27 16:21:15;;;;;;;4.60;3.03;;;14.50;99.90;;;;;;5030404;28;20270;-48
2021/10/27 16:23:42;;;;;;;5.40;2.90;;;14.50;99.90;;;;;;5033995;28;20850;-45
2021/10/27 16:26:09;;;;;;;6.20;3.30;;;14.50;99.90;;;;;;5026421;28;20231;-42
2021/10/27 16:28:36;;;;;;;5.40;3.10;;;14.50;99.90;;;;;;5025581;28;20220;-46
2021/10/27 16:31:04;;;;;;;5.27;3.03;;;14.50;99.90;;;;;;5033764;28;20235;-44
2021/10/27 16:33:33;;;;;;;3.17;2.87;;;14.50;99.90;;;;;;5021218;28;20591;-44
2021/10/27 16:36:00;;;;;;;3.97;3.17;;;14.50;99.90;;;;;;5026010;28;20195;-46
2021/10/27 16:38:27;;;;;;;6.37;3.60;;;14.40;99.90;;;;;;5035070;28;20549;-44